sensor_id;sensor_type;location;lat;lon;timestamp;pressure;altitude;pressure_sealevel;temperature;humidity
9474;BME280;8865;47.636;7.692;2022-12-29T13:34:00;97944.75;;;12.82;100.00
9474;BME280;8865;47.636;7.692;2022-12-29T13:36:37;97947.00;;;12.77;100.00
9474;BME280;8865;47.636;7.692;2022-12-29T13:39:15;97941.06;;;12.75;100.00
9474;BME280;8865;47.636;7.692;2022-12-29T13:41:50;97932.44;;;12.65;100.00
9474;BME280;8865;47.636;7.692;2022-12-29T13:44:32;97932.44;;;12.65;100.00
9474;BME280;8865;47.636;7.692;2022-12-29T13:47:05;97929.81;;;12.65;100.00
9474;BME280;8865;47.636;7.692;2022-12-29T13:49:34;97937.81;;;12.55;100.00
9474;BME280;8865;47.636;7.692;2022-12-29T13:57:56;97950.66;;;12.40;100.00
9474;BME280;8865;47.636;7.692;2022-12-29T14:00:29;97958.78;;;12.29;100.00
9474;BME280;8865;47.636;7.692;2022-12-29T14:08:38;97960.19;;;12.23;100.00
9474;BME280;8865;47.636;7.692;2022-12-29T14:11:12;97954.94;;;12.23;100.00
9474;BME280;8865;47.636;7.692;2022-12-29T14:13:42;97962.75;;;12.15;100.00
9474;BME280;8865;47.636;7.692;2022-12-29T14:16:31;97966.72;;;12.19;100.00
9474;BME280;8865;47.636;7.692;2022-12-29T14:19:27;97967.16;;;12.14;100.00
9474;BME280;8865;47.636;7.692;2022-12-29T14:22:12;97960.28;;;12.13;100.00
9474;BME280;8865;47.636;7.692;2022-12-29T14:24:41;97967.69;;;12.18;100.00
9474;BME280;8865;47.636;7.692;2022-12-29T14:34:58;97994.56;;;12.12;100.00
9474;BME280;8865;47.636;7.692;2022-12-29T14:37:32;97997.31;;;12.10;100.00
9474;BME280;8865;47.636;7.692;2022-12-29T14:40:23;97995.00;;;12.07;100.00
9474;BME280;8865;47.636;7.692;2022-12-29T14:42:53;97995.00;;;12.07;100.00
9474;BME280;8865;47.636;7.692;2022-12-29T14:47:50;98013.97;;;12.01;100.00
9474;BME280;8865;47.636;7.692;2022-12-29T14:55:37;98026.84;;;11.85;100.00
9474;BME280;8865;47.636;7.692;2022-12-29T15:00:39;98026.06;;;11.74;100.00
9474;BME280;8865;47.636;7.692;2022-12-29T15:03:17;98036.47;;;11.66;100.00
9474;BME280;8865;47.636;7.692;2022-12-29T15:08:21;98043.13;;;11.60;100.00
9474;BME280;8865;47.636;7.692;2022-12-29T15:11:00;98048.50;;;11.59;100.00
9474;BME280;8865;47.636;7.692;2022-12-29T15:13:41;98048.78;;;11.56;100.00
9474;BME280;8865;47.636;7.692;2022-12-29T15:16:38;98035.97;;;11.53;100.00
9474;BME280;8865;47.636;7.692;2022-12-29T15:19:20;98037.91;;;11.51;100.00
9474;BME280;8865;47.636;7.692;2022-12-29T15:21:47;98046.75;;;11.50;100.00
9474;BME280;8865;47.636;7.692;2022-12-29T15:24:14;98064.72;;;11.44;100.00
9474;BME280;8865;47.636;7.692;2022-12-29T15:26:42;98048.34;;;11.23;100.00
9474;BME280;8865;47.636;7.692;2022-12-29T15:29:31;98053.44;;;11.24;100.00
9474;BME280;8865;47.636;7.692;2022-12-29T15:32:00;98064.50;;;11.18;100.00
9474;BME280;8865;47.636;7.692;2022-12-29T15:34:29;98060.78;;;11.11;100.00
9474;BME280;8865;47.636;7.692;2022-12-29T15:36:56;98054.28;;;11.05;100.00
9474;BME280;8865;47.636;7.692;2022-12-29T15:39:30;98058.16;;;11.11;100.00
9474;BME280;8865;47.636;7.692;2022-12-29T15:42:01;98047.69;;;11.01;100.00
9474;BME280;8865;47.636;7.692;2022-12-29T15:44:34;98044.22;;;11.11;100.00
9474;BME280;8865;47.636;7.692;2022-12-29T15:47:22;98028.09;;;11.05;100.00
9474;BME280;8865;47.636;7.692;2022-12-29T15:50:05;98020.22;;;11.15;100.00
9474;BME280;8865;47.636;7.692;2022-12-29T15:52:33;98014.56;;;11.20;100.00
9474;BME280;8865;47.636;7.692;2022-12-29T15:55:00;98007.03;;;11.35;100.00
9474;BME280;8865;47.636;7.692;2022-12-29T15:57:30;98011.31;;;11.36;100.00
9474;BME280;8865;47.636;7.692;2022-12-29T15:59:58;98001.94;;;11.33;100.00
9474;BME280;8865;47.636;7.692;2022-12-29T16:02:25;97987.56;;;11.37;100.00
9474;BME280;8865;47.636;7.692;2022-12-29T16:04:52;97988.53;;;11.36;100.00
9474;BME280;8865;47.636;7.692;2022-12-29T16:07:28;97990.09;;;11.29;100.00
9474;BME280;8865;47.636;7.692;2022-12-29T16:09:57;97992.09;;;11.45;100.00
9474;BME280;8865;47.636;7.692;2022-12-29T16:12:32;97997.06;;;11.48;100.00
9474;BME280;8865;47.636;7.692;2022-12-29T16:15:04;97995.97;;;11.41;100.00
9474;BME280;8865;47.636;7.692;2022-12-29T16:17:34;97997.59;;;11.52;100.00
9474;BME280;8865;47.636;7.692;2022-12-29T16:20:05;98019.66;;;11.59;100.00
9474;BME280;8865;47.636;7.692;2022-12-29T16:22:41;98012.75;;;11.58;100.00
9474;BME280;8865;47.636;7.692;2022-12-29T16:25:25;98012.34;;;11.53;100.00
9474;BME280;8865;47.636;7.692;2022-12-29T16:27:53;98030.72;;;11.53;100.00
9474;BME280;8865;47.636;7.692;2022-12-29T16:30:22;98029.34;;;11.49;100.00
9474;BME280;8865;47.636;7.692;2022-12-29T16:32:51;98018.38;;;11.35;100.00
9474;BME280;8865;47.636;7.692;2022-12-29T16:35:20;98025.25;;;11.36;100.00
9474;BME280;8865;47.636;7.692;2022-12-29T16:37:47;98023.63;;;11.35;100.00
9474;BME280;8865;47.636;7.692;2022-12-29T16:40:26;98030.91;;;11.41;100.00
9474;BME280;8865;47.636;7.692;2022-12-29T16:42:58;98040.16;;;11.36;100.00
9474;BME280;8865;47.636;7.692;2022-12-29T16:50:42;98060.88;;;11.29;100.00
9474;BME280;8865;47.636;7.692;2022-12-29T16:53:38;98061.16;;;11.16;100.00
9474;BME280;8865;47.636;7.692;2022-12-29T16:56:17;98045.47;;;11.06;100.00
9474;BME280;8865;47.636;7.692;2022-12-29T17:01:40;98056.78;;;10.97;100.00
9474;BME280;8865;47.636;7.692;2022-12-29T17:04:09;98060.81;;;11.01;100.00
9474;BME280;8865;47.636;7.692;2022-12-29T17:06:36;98051.56;;;10.97;100.00
9474;BME280;8865;47.636;7.692;2022-12-29T17:09:12;98055.00;;;10.98;100.00
9474;BME280;8865;47.636;7.692;2022-12-29T17:11:41;98049.06;;;10.96;100.00
9474;BME280;8865;47.636;7.692;2022-12-29T17:14:26;98053.50;;;10.95;100.00
9474;BME280;8865;47.636;7.692;2022-12-29T17:16:55;98056.13;;;10.95;100.00
9474;BME280;8865;47.636;7.692;2022-12-29T17:19:32;98056.91;;;11.05;100.00
9474;BME280;8865;47.636;7.692;2022-12-29T17:21:58;98055.94;;;11.16;100.00
9474;BME280;8865;47.636;7.692;2022-12-29T17:24:25;98052.53;;;11.06;100.00
9474;BME280;8865;47.636;7.692;2022-12-29T17:26:56;98044.91;;;11.13;100.00
9474;BME280;8865;47.636;7.692;2022-12-29T17:29:39;98055.09;;;11.16;100.00
9474;BME280;8865;47.636;7.692;2022-12-29T17:32:12;98053.59;;;11.13;100.00
9474;BME280;8865;47.636;7.692;2022-12-29T17:34:39;98057.34;;;11.11;100.00
9474;BME280;8865;47.636;7.692;2022-12-29T17:39:46;98051.09;;;11.12;100.00
9474;BME280;8865;47.636;7.692;2022-12-29T17:42:12;98052.09;;;11.11;100.00
9474;BME280;8865;47.636;7.692;2022-12-29T17:44:38;98041.06;;;11.07;100.00
9474;BME280;8865;47.636;7.692;2022-12-29T17:47:04;98031.13;;;11.11;100.00
9474;BME280;8865;47.636;7.692;2022-12-29T17:49:30;98038.84;;;11.12;100.00
9474;BME280;8865;47.636;7.692;2022-12-29T17:51:56;98027.00;;;11.08;100.00
9474;BME280;8865;47.636;7.692;2022-12-29T17:54:24;98040.63;;;11.12;100.00
9474;BME280;8865;47.636;7.692;2022-12-29T17:56:50;98036.66;;;11.07;100.00
9474;BME280;8865;47.636;7.692;2022-12-29T17:59:17;98047.81;;;11.10;100.00
9474;BME280;8865;47.636;7.692;2022-12-29T18:01:45;98038.56;;;11.05;100.00
9474;BME280;8865;47.636;7.692;2022-12-29T18:04:13;98038.56;;;11.05;100.00
9474;BME280;8865;47.636;7.692;2022-12-29T18:06:40;98046.56;;;11.04;100.00
9474;BME280;8865;47.636;7.692;2022-12-29T18:09:06;98043.69;;;10.97;100.00
9474;BME280;8865;47.636;7.692;2022-12-29T18:11:40;98029.22;;;10.83;100.00
9474;BME280;8865;47.636;7.692;2022-12-29T18:14:16;98027.56;;;10.82;100.00
9474;BME280;8865;47.636;7.692;2022-12-29T18:16:43;98020.38;;;10.94;100.00
9474;BME280;8865;47.636;7.692;2022-12-29T18:19:09;98026.88;;;10.90;100.00
9474;BME280;8865;47.636;7.692;2022-12-29T18:21:35;98018.19;;;10.89;100.00
9474;BME280;8865;47.636;7.692;2022-12-29T18:24:01;98018.44;;;10.96;100.00
9474;BME280;8865;47.636;7.692;2022-12-29T18:26:28;98009.75;;;11.05;100.00
9474;BME280;8865;47.636;7.692;2022-12-29T18:28:57;98006.81;;;11.18;100.00
9474;BME280;8865;47.636;7.692;2022-12-29T18:31:26;98011.09;;;11.19;100.00
9474;BME280;8865;47.636;7.692;2022-12-29T18:33:53;98009.69;;;11.25;100.00
9474;BME280;8865;47.636;7.692;2022-12-29T18:36:20;98009.13;;;11.31;100.00
9474;BME280;8865;47.636;7.692;2022-12-29T18:38:46;98007.31;;;11.32;100.00
9474;BME280;8865;47.636;7.692;2022-12-29T18:41:26;98014.41;;;11.21;100.00
9474;BME280;8865;47.636;7.692;2022-12-29T18:43:54;98015.91;;;11.24;100.00
9474;BME280;8865;47.636;7.692;2022-12-29T18:46:21;98024.97;;;11.39;100.00
9474;BME280;8865;47.636;7.692;2022-12-29T18:48:47;98016.19;;;11.31;100.00
9474;BME280;8865;47.636;7.692;2022-12-29T18:51:18;98020.72;;;11.38;100.00
9474;BME280;8865;47.636;7.692;2022-12-29T18:53:45;98038.22;;;11.38;100.00
9474;BME280;8865;47.636;7.692;2022-12-29T18:56:12;98044.16;;;11.30;100.00
9474;BME280;8865;47.636;7.692;2022-12-29T18:58:38;98047.34;;;11.24;100.00
9474;BME280;8865;47.636;7.692;2022-12-29T19:01:05;98047.53;;;11.13;100.00
9474;BME280;8865;47.636;7.692;2022-12-29T19:03:31;98062.88;;;11.07;100.00
9474;BME280;8865;47.636;7.692;2022-12-29T19:05:57;98063.97;;;10.95;100.00
9474;BME280;8865;47.636;7.692;2022-12-29T19:08:25;98063.97;;;10.85;100.00
9474;BME280;8865;47.636;7.692;2022-12-29T19:10:51;98064.25;;;10.82;100.00
9474;BME280;8865;47.636;7.692;2022-12-29T19:13:21;98067.41;;;10.76;100.00
9474;BME280;8865;47.636;7.692;2022-12-29T19:15:56;98079.97;;;10.72;100.00
9474;BME280;8865;47.636;7.692;2022-12-29T19:18:24;98082.16;;;10.48;100.00
9474;BME280;8865;47.636;7.692;2022-12-29T19:20:51;98083.53;;;10.42;100.00
9474;BME280;8865;47.636;7.692;2022-12-29T19:23:20;98082.13;;;10.38;100.00
9474;BME280;8865;47.636;7.692;2022-12-29T19:25:47;98087.63;;;10.35;100.00
9474;BME280;8865;47.636;7.692;2022-12-29T19:28:19;98092.19;;;10.33;100.00
9474;BME280;8865;47.636;7.692;2022-12-29T19:30:47;98098.19;;;10.24;100.00
9474;BME280;8865;47.636;7.692;2022-12-29T19:33:13;98103.16;;;10.27;100.00
9474;BME280;8865;47.636;7.692;2022-12-29T19:35:40;98101.09;;;10.21;100.00
9474;BME280;8865;47.636;7.692;2022-12-29T19:38:08;98108.03;;;10.00;100.00
9474;BME280;8865;47.636;7.692;2022-12-29T19:40:35;98113.41;;;9.99;100.00
9474;BME280;8865;47.636;7.692;2022-12-29T19:43:01;98121.41;;;10.07;100.00
9474;BME280;8865;47.636;7.692;2022-12-29T19:45:27;98123.63;;;10.12;100.00
9474;BME280;8865;47.636;7.692;2022-12-29T19:47:53;98129.97;;;10.09;100.00
9474;BME280;8865;47.636;7.692;2022-12-29T19:50:19;98132.00;;;10.06;100.00
9474;BME280;8865;47.636;7.692;2022-12-29T19:52:45;98133.81;;;10.05;100.00
9474;BME280;8865;47.636;7.692;2022-12-29T19:55:14;98146.47;;;10.00;100.00
9474;BME280;8865;47.636;7.692;2022-12-29T19:57:40;98155.16;;;10.00;100.00
9474;BME280;8865;47.636;7.692;2022-12-29T20:00:07;98163.81;;;10.01;100.00
9474;BME280;8865;47.636;7.692;2022-12-29T20:02:33;98163.13;;;9.99;100.00
9474;BME280;8865;47.636;7.692;2022-12-29T20:04:59;98164.97;;;9.87;100.00
9474;BME280;8865;47.636;7.692;2022-12-29T20:07:25;98154.47;;;9.77;100.00
9474;BME280;8865;47.636;7.692;2022-12-29T20:09:52;98141.66;;;9.74;100.00
9474;BME280;8865;47.636;7.692;2022-12-29T20:12:27;98142.47;;;9.75;100.00
9474;BME280;8865;47.636;7.692;2022-12-29T20:14:53;98137.84;;;9.78;100.00
9474;BME280;8865;47.636;7.692;2022-12-29T20:17:19;98122.72;;;9.82;100.00
9474;BME280;8865;47.636;7.692;2022-12-29T20:19:45;98124.38;;;9.83;100.00
9474;BME280;8865;47.636;7.692;2022-12-29T20:22:11;98122.75;;;9.92;100.00
9474;BME280;8865;47.636;7.692;2022-12-29T20:24:38;98112.28;;;9.92;100.00
9474;BME280;8865;47.636;7.692;2022-12-29T20:27:06;98112.59;;;9.98;100.00
9474;BME280;8865;47.636;7.692;2022-12-29T20:29:42;98107.44;;;9.87;100.00
9474;BME280;8865;47.636;7.692;2022-12-29T20:32:19;98115.03;;;9.90;100.00
9474;BME280;8865;47.636;7.692;2022-12-29T20:34:46;98112.25;;;9.82;100.00
9474;BME280;8865;47.636;7.692;2022-12-29T20:37:13;98117.22;;;9.85;100.00
9474;BME280;8865;47.636;7.692;2022-12-29T20:39:40;98121.56;;;9.75;100.00
9474;BME280;8865;47.636;7.692;2022-12-29T20:42:07;98120.63;;;9.76;100.00
9474;BME280;8865;47.636;7.692;2022-12-29T20:44:33;98125.28;;;9.72;100.00
9474;BME280;8865;47.636;7.692;2022-12-29T20:47:00;98130.66;;;9.71;100.00
9474;BME280;8865;47.636;7.692;2022-12-29T20:49:27;98122.03;;;9.80;100.00
9474;BME280;8865;47.636;7.692;2022-12-29T20:51:55;98132.88;;;9.75;100.00
9474;BME280;8865;47.636;7.692;2022-12-29T20:54:22;98127.56;;;9.65;100.00
9474;BME280;8865;47.636;7.692;2022-12-29T20:56:48;98126.38;;;9.70;100.00
9474;BME280;8865;47.636;7.692;2022-12-29T20:59:17;98128.72;;;9.73;100.00
9474;BME280;8865;47.636;7.692;2022-12-29T21:01:45;98134.22;;;9.70;100.00
9474;BME280;8865;47.636;7.692;2022-12-29T21:04:11;98127.78;;;9.74;100.00
9474;BME280;8865;47.636;7.692;2022-12-29T21:06:38;98131.91;;;9.76;100.00
9474;BME280;8865;47.636;7.692;2022-12-29T21:09:04;98138.91;;;9.76;100.00
9474;BME280;8865;47.636;7.692;2022-12-29T21:11:31;98140.84;;;9.74;100.00
9474;BME280;8865;47.636;7.692;2022-12-29T21:13:57;98140.84;;;9.74;100.00
9474;BME280;8865;47.636;7.692;2022-12-29T21:16:23;98146.06;;;9.74;100.00
9474;BME280;8865;47.636;7.692;2022-12-29T21:18:49;98151.31;;;9.74;100.00
9474;BME280;8865;47.636;7.692;2022-12-29T21:21:24;98159.81;;;9.66;100.00
9474;BME280;8865;47.636;7.692;2022-12-29T21:23:51;98156.59;;;9.62;100.00
9474;BME280;8865;47.636;7.692;2022-12-29T21:26:22;98182.56;;;9.54;100.00
9474;BME280;8865;47.636;7.692;2022-12-29T21:28:49;98217.13;;;9.58;100.00
9474;BME280;8865;47.636;7.692;2022-12-29T21:31:23;98228.84;;;9.42;100.00
9474;BME280;8865;47.636;7.692;2022-12-29T21:33:50;98225.78;;;9.37;100.00
9474;BME280;8865;47.636;7.692;2022-12-29T21:36:16;98243.16;;;9.27;100.00
9474;BME280;8865;47.636;7.692;2022-12-29T21:38:42;98249.13;;;9.18;100.00
9474;BME280;8865;47.636;7.692;2022-12-29T21:41:11;98259.00;;;9.03;100.00
9474;BME280;8865;47.636;7.692;2022-12-29T21:43:37;98262.47;;;9.03;100.00
9474;BME280;8865;47.636;7.692;2022-12-29T21:46:03;98256.06;;;8.96;100.00
9474;BME280;8865;47.636;7.692;2022-12-29T21:48:31;98256.31;;;8.93;100.00
9474;BME280;8865;47.636;7.692;2022-12-29T21:51:08;98261.94;;;8.77;100.00
9474;BME280;8865;47.636;7.692;2022-12-29T21:54:00;98267.50;;;8.84;100.00
9474;BME280;8865;47.636;7.692;2022-12-29T21:56:46;98264.06;;;8.72;100.00
9474;BME280;8865;47.636;7.692;2022-12-29T21:59:14;98269.28;;;8.72;100.00
9474;BME280;8865;47.636;7.692;2022-12-29T22:02:01;98273.91;;;8.68;100.00
9474;BME280;8865;47.636;7.692;2022-12-29T22:04:46;98275.13;;;8.75;100.00
9474;BME280;8865;47.636;7.692;2022-12-29T22:07:31;98290.91;;;8.74;100.00
9474;BME280;8865;47.636;7.692;2022-12-29T22:10:16;98289.81;;;8.76;100.00
9474;BME280;8865;47.636;7.692;2022-12-29T22:13:00;98291.38;;;8.79;100.00
9474;BME280;8865;47.636;7.692;2022-12-29T22:15:30;98293.63;;;8.84;100.00
9474;BME280;8865;47.636;7.692;2022-12-29T22:17:57;98295.97;;;8.87;100.00
9474;BME280;8865;47.636;7.692;2022-12-29T22:20:25;98300.03;;;8.91;100.00
9474;BME280;8865;47.636;7.692;2022-12-29T22:22:51;98310.34;;;8.92;100.00
9474;BME280;8865;47.636;7.692;2022-12-29T22:25:18;98306.06;;;8.91;100.00
9474;BME280;8865;47.636;7.692;2022-12-29T22:27:44;98304.16;;;8.93;100.00
9474;BME280;8865;47.636;7.692;2022-12-29T22:30:11;98312.72;;;8.96;100.00
9474;BME280;8865;47.636;7.692;2022-12-29T22:32:37;98311.28;;;8.91;100.00
9474;BME280;8865;47.636;7.692;2022-12-29T22:35:04;98315.56;;;8.92;100.00
9474;BME280;8865;47.636;7.692;2022-12-29T22:37:33;98320.81;;;8.92;100.00
9474;BME280;8865;47.636;7.692;2022-12-29T22:40:00;98339.09;;;8.92;100.00
9474;BME280;8865;47.636;7.692;2022-12-29T22:42:25;98337.66;;;8.88;100.00
9474;BME280;8865;47.636;7.692;2022-12-29T22:44:54;98339.22;;;8.91;100.00
9474;BME280;8865;47.636;7.692;2022-12-29T22:47:20;98326.63;;;8.85;100.00
9474;BME280;8865;47.636;7.692;2022-12-29T22:49:49;98331.97;;;8.83;100.00
9474;BME280;8865;47.636;7.692;2022-12-29T22:52:15;98329.72;;;8.79;100.00
9474;BME280;8865;47.636;7.692;2022-12-29T22:54:49;98331.25;;;8.81;100.00
9474;BME280;8865;47.636;7.692;2022-12-29T22:57:15;98331.13;;;8.83;100.00
9474;BME280;8865;47.636;7.692;2022-12-29T22:59:41;98330.53;;;8.79;100.00
9474;BME280;8865;47.636;7.692;2022-12-29T23:02:07;98323.41;;;8.81;100.00
9474;BME280;8865;47.636;7.692;2022-12-29T23:04:33;98316.75;;;8.66;100.00
9474;BME280;8865;47.636;7.692;2022-12-29T23:06:59;98313.56;;;8.73;100.00
9474;BME280;8865;47.636;7.692;2022-12-29T23:09:27;98320.91;;;8.80;100.00
9474;BME280;8865;47.636;7.692;2022-12-29T23:11:53;98326.97;;;8.80;100.00
9474;BME280;8865;47.636;7.692;2022-12-29T23:14:19;98323.41;;;8.81;100.00
9474;BME280;8865;47.636;7.692;2022-12-29T23:16:45;98328.63;;;8.81;100.00
9474;BME280;8865;47.636;7.692;2022-12-29T23:19:12;98330.41;;;8.81;100.00
9474;BME280;8865;47.636;7.692;2022-12-29T23:21:38;98342.53;;;8.82;100.00
9474;BME280;8865;47.636;7.692;2022-12-29T23:24:06;98344.28;;;8.81;100.00
9474;BME280;8865;47.636;7.692;2022-12-29T23:26:36;98350.50;;;8.80;100.00
9474;BME280;8865;47.636;7.692;2022-12-29T23:29:05;98355.94;;;8.77;100.00
9474;BME280;8865;47.636;7.692;2022-12-29T23:31:32;98361.28;;;8.75;100.00
9474;BME280;8865;47.636;7.692;2022-12-29T23:33:59;98363.28;;;8.72;100.00
9474;BME280;8865;47.636;7.692;2022-12-29T23:36:26;98368.63;;;8.70;100.00
9474;BME280;8865;47.636;7.692;2022-12-29T23:38:52;98374.09;;;8.67;100.00
9474;BME280;8865;47.636;7.692;2022-12-29T23:41:18;98376.09;;;8.64;100.00
9474;BME280;8865;47.636;7.692;2022-12-29T23:43:44;98376.34;;;8.61;100.00
9474;BME280;8865;47.636;7.692;2022-12-29T23:46:15;98362.94;;;8.54;100.00
9474;BME280;8865;47.636;7.692;2022-12-29T23:48:41;98366.13;;;8.57;100.00
9474;BME280;8865;47.636;7.692;2022-12-29T23:51:08;98358.53;;;8.54;100.00
9474;BME280;8865;47.636;7.692;2022-12-29T23:53:36;98355.56;;;8.59;100.00
9474;BME280;8865;47.636;7.692;2022-12-29T23:56:03;98361.72;;;8.58;100.00
9474;BME280;8865;47.636;7.692;2022-12-29T23:58:34;98365.31;;;8.57;100.00
